Time;durP1;ratioP1;P1;durP2;ratioP2;P2;SDS_P1;SDS_P2;PMS_P1;PMS_P2;Temp;Humidity;BMP_temperature;BMP_pressure;BME280_temperature;BME280_humidity;BME280_pressure;Samples;Min_cycle;Max_cycle;Signal;HPM_P1;HPM_P2
2021/09/12 00:00:40;;;;;;;8.13;5.10;;;17.50;99.90;;;;;;5000411;28;20252;-52
2021/09/12 00:03:07;;;;;;;8.40;4.53;;;17.40;99.90;;;;;;4998001;28;20223;-52
2021/09/12 00:05:34;;;;;;;6.53;4.13;;;17.50;99.90;;;;;;5000230;28;20215;-52
2021/09/12 00:08:02;;;;;;;10.50;4.50;;;17.50;99.90;;;;;;4999762;28;20239;-52
2021/09/12 00:10:29;;;;;;;10.00;4.60;;;17.50;99.90;;;;;;4999143;28;20205;-53
2021/09/12 00:12:59;;;;;;;6.37;3.23;;;17.40;99.90;;;;;;4995791;28;20292;-52
2021/09/12 00:15:25;;;;;;;8.87;3.30;;;17.20;99.90;;;;;;4998623;28;20323;-52
2021/09/12 00:17:52;;;;;;;8.20;3.83;;;17.20;99.90;;;;;;5004836;28;20638;-52
2021/09/12 00:20:19;;;;;;;8.77;3.57;;;17.20;99.90;;;;;;5003952;28;20303;-52
2021/09/12 00:22:47;;;;;;;6.77;3.70;;;17.20;99.90;;;;;;5003383;28;20211;-52
2021/09/12 00:25:14;;;;;;;7.50;4.03;;;17.20;99.90;;;;;;5007191;28;20528;-52
2021/09/12 00:27:42;;;;;;;6.57;3.60;;;17.20;99.90;;;;;;5013906;28;20290;-52
2021/09/12 00:30:09;;;;;;;6.53;3.60;;;17.30;99.90;;;;;;5001520;28;20228;-52
2021/09/12 00:32:36;;;;;;;8.27;3.40;;;17.10;99.90;;;;;;5003823;28;20565;-52
2021/09/12 00:35:04;;;;;;;5.80;3.67;;;17.10;99.90;;;;;;4996939;28;20288;-52
2021/09/12 00:37:32;;;;;;;7.47;4.10;;;17.10;99.90;;;;;;5003484;28;20308;-52
2021/09/12 00:39:59;;;;;;;8.47;4.57;;;17.00;99.90;;;;;;4998759;28;20665;-52
2021/09/12 00:42:26;;;;;;;8.57;4.40;;;17.00;99.90;;;;;;5002063;28;20286;-52
2021/09/12 00:44:52;;;;;;;9.03;4.23;;;17.00;99.90;;;;;;5001459;28;20307;-52
2021/09/12 00:47:20;;;;;;;8.60;4.33;;;16.90;99.90;;;;;;5004243;28;20296;-53
2021/09/12 00:49:46;;;;;;;8.37;4.10;;;16.90;99.90;;;;;;4998648;28;20284;-52
2021/09/12 00:52:15;;;;;;;7.47;3.80;;;16.70;99.90;;;;;;5003558;28;20292;-52
2021/09/12 00:54:44;;;;;;;12.97;4.37;;;16.80;99.90;;;;;;5002844;28;20312;-52
2021/09/12 00:57:12;;;;;;;10.93;3.83;;;16.80;99.90;;;;;;5002414;28;20289;-52
2021/09/12 00:59:41;;;;;;;5.90;3.33;;;16.80;99.90;;;;;;5001910;28;20285;-52
2021/09/12 01:02:10;;;;;;;8.87;3.93;;;16.70;99.90;;;;;;5003346;28;20717;-52
2021/09/12 01:04:38;;;;;;;6.97;3.33;;;16.50;99.90;;;;;;5006017;28;20303;-52
2021/09/12 01:07:08;;;;;;;10.63;3.73;;;16.50;99.90;;;;;;4998749;28;20471;-52
2021/09/12 01:09:39;;;;;;;6.70;3.07;;;16.50;99.90;;;;;;5008290;28;20244;-53
2021/09/12 01:12:09;;;;;;;4.13;2.60;;;16.40;99.90;;;;;;5005679;28;20209;-52
2021/09/12 01:14:37;;;;;;;6.33;2.90;;;16.40;99.90;;;;;;5000541;28;20257;-53
2021/09/12 01:17:05;;;;;;;8.43;3.17;;;16.50;99.90;;;;;;5007303;28;20201;-52
2021/09/12 01:19:32;;;;;;;5.83;2.40;;;16.40;99.90;;;;;;5006456;28;20264;-52
2021/09/12 01:22:03;;;;;;;5.60;2.23;;;16.50;99.90;;;;;;5008033;28;20202;-53
2021/09/12 01:24:32;;;;;;;4.67;3.03;;;16.50;99.90;;;;;;4992947;28;20243;-52
2021/09/12 01:26:59;;;;;;;4.93;3.17;;;16.50;99.90;;;;;;5015020;28;20633;-52
2021/09/12 01:29:26;;;;;;;7.10;3.20;;;16.40;99.90;;;;;;5005575;28;20226;-52
2021/09/12 01:31:53;;;;;;;6.10;3.30;;;16.40;99.90;;;;;;5000261;28;20656;-52
2021/09/12 01:34:20;;;;;;;6.37;3.50;;;16.20;99.90;;;;;;4998094;28;20583;-52
2021/09/12 01:36:46;;;;;;;9.20;4.00;;;16.30;99.90;;;;;;4998808;28;20256;-52
2021/09/12 01:39:13;;;;;;;7.03;3.60;;;16.40;99.90;;;;;;5004232;28;20220;-52
2021/09/12 01:41:40;;;;;;;6.47;3.60;;;16.40;99.90;;;;;;5002610;28;20280;-52
2021/09/12 01:44:07;;;;;;;14.03;3.87;;;16.50;99.90;;;;;;5009792;28;20887;-52
2021/09/12 01:46:34;;;;;;;7.43;3.57;;;16.40;99.90;;;;;;5006616;28;20258;-52
2021/09/12 01:49:06;;;;;;;7.47;3.43;;;16.30;99.90;;;;;;5002869;28;20326;-52
2021/09/12 01:51:33;;;;;;;6.57;3.53;;;16.40;99.90;;;;;;5001379;28;20702;-52
2021/09/12 01:53:59;;;;;;;6.67;4.07;;;16.40;99.90;;;;;;5003657;28;20234;-52
2021/09/12 01:56:26;;;;;;;5.73;3.70;;;16.50;99.90;;;;;;4999947;28;20730;-52
2021/09/12 01:58:53;;;;;;;8.67;4.43;;;16.30;99.90;;;;;;5004213;28;20300;-52
2021/09/12 02:01:20;;;;;;;6.57;4.17;;;16.10;99.90;;;;;;5004140;28;20732;-52
2021/09/12 02:03:47;;;;;;;7.13;4.37;;;15.90;99.90;;;;;;5000469;28;20338;-52
2021/09/12 02:06:15;;;;;;;7.53;3.50;;;15.80;99.90;;;;;;4998067;28;20226;-52
2021/09/12 02:08:41;;;;;;;7.53;3.97;;;15.80;99.90;;;;;;5003932;28;20236;-52
2021/09/12 02:11:10;;;;;;;7.73;4.20;;;15.90;99.90;;;;;;5002193;28;20601;-52
2021/09/12 02:13:37;;;;;;;9.13;4.97;;;15.90;99.90;;;;;;4999352;28;20235;-52
2021/09/12 02:16:04;;;;;;;8.73;4.40;;;15.90;99.90;;;;;;4997096;28;20207;-52
2021/09/12 02:18:31;;;;;;;6.07;4.30;;;16.00;99.90;;;;;;5011131;28;20300;-52
2021/09/12 02:20:58;;;;;;;7.13;4.03;;;15.90;99.90;;;;;;5002361;28;20247;-52
2021/09/12 02:23:25;;;;;;;10.70;4.87;;;15.90;99.90;;;;;;5001228;28;20287;-52
2021/09/12 02:25:52;;;;;;;8.77;4.27;;;15.80;99.90;;;;;;5003131;28;20216;-53
2021/09/12 02:28:18;;;;;;;10.83;5.10;;;15.80;99.90;;;;;;4997671;28;20239;-52
2021/09/12 02:30:46;;;;;;;11.67;5.00;;;15.80;99.90;;;;;;5003979;28;20290;-52
2021/09/12 02:33:13;;;;;;;9.30;4.87;;;15.70;99.90;;;;;;4999786;28;20306;-52
2021/09/12 02:35:40;;;;;;;10.80;4.60;;;15.80;99.90;;;;;;4991909;28;20298;-52
2021/09/12 02:38:06;;;;;;;8.43;4.67;;;15.90;99.90;;;;;;4999452;28;20204;-52
2021/09/12 02:40:33;;;;;;;9.33;4.60;;;15.90;99.90;;;;;;4996524;28;20237;-52
2021/09/12 02:43:00;;;;;;;9.13;4.80;;;16.00;99.90;;;;;;5001597;28;20294;-52
2021/09/12 02:45:27;;;;;;;8.27;4.80;;;15.90;99.90;;;;;;5002074;28;20678;-52
2021/09/12 02:47:54;;;;;;;9.20;5.50;;;15.80;99.90;;;;;;5011242;28;20199;-52
2021/09/12 02:50:21;;;;;;;7.00;4.93;;;15.80;99.90;;;;;;5004887;28;20317;-52
2021/09/12 02:52:48;;;;;;;9.90;4.67;;;15.80;99.90;;;;;;5011120;28;20300;-53
2021/09/12 02:55:15;;;;;;;9.57;5.30;;;15.80;99.90;;;;;;4996622;28;20220;-52
2021/09/12 02:57:42;;;;;;;7.93;5.20;;;15.70;99.90;;;;;;5000075;28;20701;-52
2021/09/12 03:00:09;;;;;;;10.40;5.90;;;15.50;99.90;;;;;;5001780;28;20209;-52
2021/09/12 03:02:36;;;;;;;10.30;5.87;;;15.40;99.90;;;;;;4996873;28;20296;-52
2021/09/12 03:05:04;;;;;;;10.27;5.53;;;15.40;99.90;;;;;;5000920;28;20312;-52
2021/09/12 03:07:31;;;;;;;9.80;5.73;;;15.50;99.90;;;;;;4997642;28;20293;-52
2021/09/12 03:09:57;;;;;;;9.37;5.60;;;15.50;99.90;;;;;;4998457;28;20290;-52
2021/09/12 03:12:24;;;;;;;11.33;5.73;;;15.50;99.90;;;;;;4996475;28;20398;-52
2021/09/12 03:14:52;;;;;;;12.10;5.97;;;15.50;99.90;;;;;;5000215;28;20324;-52
2021/09/12 03:17:18;;;;;;;11.13;6.47;;;15.40;99.90;;;;;;5000538;28;20229;-52
2021/09/12 03:19:45;;;;;;;9.90;6.70;;;15.40;99.90;;;;;;5014150;28;20319;-52
2021/09/12 03:22:12;;;;;;;9.87;6.37;;;15.30;99.90;;;;;;4995258;28;20295;-52
2021/09/12 03:24:39;;;;;;;10.83;7.20;;;15.20;99.90;;;;;;4993839;28;20483;-52
2021/09/12 03:27:06;;;;;;;16.13;7.00;;;15.10;99.90;;;;;;4990650;28;20239;-52
2021/09/12 03:29:32;;;;;;;8.57;6.43;;;15.20;99.90;;;;;;5001190;28;20243;-52
2021/09/12 03:31:59;;;;;;;13.70;7.20;;;15.30;99.90;;;;;;5000575;28;20275;-52
2021/09/12 03:34:26;;;;;;;9.97;6.10;;;15.20;99.90;;;;;;4993988;28;20210;-52
2021/09/12 03:36:53;;;;;;;9.87;6.63;;;15.20;99.90;;;;;;4996841;28;20225;-52
2021/09/12 03:39:20;;;;;;;11.10;7.10;;;15.40;99.90;;;;;;5002739;28;20551;-52
2021/09/12 03:41:47;;;;;;;10.23;6.67;;;15.30;99.90;;;;;;5002282;28;21286;-52
2021/09/12 03:44:14;;;;;;;19.77;7.10;;;15.30;99.90;;;;;;5006341;28;20677;-52
2021/09/12 03:46:41;;;;;;;13.53;6.90;;;15.30;99.90;;;;;;5003437;28;20299;-52
2021/09/12 03:49:08;;;;;;;12.63;6.90;;;15.30;99.90;;;;;;4997670;28;20331;-52
2021/09/12 03:51:35;;;;;;;10.40;7.20;;;15.30;99.90;;;;;;5005949;28;20303;-52
2021/09/12 03:54:02;;;;;;;13.13;7.73;;;15.30;99.90;;;;;;5000871;28;20201;-52
2021/09/12 03:56:29;;;;;;;11.27;6.57;;;15.30;99.90;;;;;;4996969;28;20660;-52
2021/09/12 03:58:56;;;;;;;9.70;6.50;;;15.30;99.90;;;;;;5008900;28;20718;-52
2021/09/12 04:01:22;;;;;;;11.43;7.30;;;15.30;99.90;;;;;;5004306;28;20670;-52
2021/09/12 04:03:50;;;;;;;13.63;7.20;;;15.10;99.90;;;;;;5001851;28;20212;-52
2021/09/12 04:06:16;;;;;;;8.80;6.27;;;15.00;99.90;;;;;;5002989;28;20227;-52
2021/09/12 04:08:43;;;;;;;13.83;7.50;;;15.00;99.90;;;;;;5005450;28;20672;-52
2021/09/12 04:11:10;;;;;;;13.00;6.97;;;15.00;99.90;;;;;;5000042;28;20306;-52
2021/09/12 04:13:37;;;;;;;10.53;6.67;;;15.00;99.90;;;;;;5000122;28;20582;-52
2021/09/12 04:16:04;;;;;;;9.83;6.20;;;15.10;99.90;;;;;;5003647;28;20233;-52
2021/09/12 04:18:35;;;;;;;10.33;5.80;;;15.10;99.90;;;;;;5007282;28;20247;-52
2021/09/12 04:21:01;;;;;;;10.33;6.53;;;15.00;99.90;;;;;;5003929;28;20309;-52
2021/09/12 04:23:28;;;;;;;10.00;6.50;;;15.00;99.90;;;;;;5001523;28;20203;-52
2021/09/12 04:25:55;;;;;;;9.67;6.10;;;15.00;99.90;;;;;;5006524;28;20596;-52
2021/09/12 04:28:22;;;;;;;10.17;6.30;;;15.00;99.90;;;;;;5001327;28;20317;-52
2021/09/12 04:30:48;;;;;;;7.53;5.77;;;15.00;99.90;;;;;;5002051;28;20296;-52
2021/09/12 04:33:16;;;;;;;10.77;5.97;;;15.00;99.90;;;;;;5000352;28;20324;-52
2021/09/12 04:35:42;;;;;;;13.00;6.40;;;15.00;99.90;;;;;;5004864;28;20637;-52
2021/09/12 04:38:09;;;;;;;8.83;6.13;;;14.90;99.90;;;;;;5003269;28;20233;-52
2021/09/12 04:40:36;;;;;;;10.23;5.70;;;14.90;99.90;;;;;;5008870;28;20291;-52
2021/09/12 04:43:03;;;;;;;11.93;5.47;;;14.90;99.90;;;;;;5003651;28;20324;-52
2021/09/12 04:45:30;;;;;;;9.53;5.73;;;14.90;99.90;;;;;;5000106;28;20241;-52
2021/09/12 04:47:56;;;;;;;7.87;5.97;;;14.80;99.90;;;;;;5006645;28;20273;-52
2021/09/12 04:50:23;;;;;;;9.93;5.37;;;14.90;99.90;;;;;;5004140;28;20284;-52
2021/09/12 04:52:50;;;;;;;10.43;5.70;;;14.90;99.90;;;;;;5007162;28;20196;-52
2021/09/12 04:55:17;;;;;;;7.73;5.20;;;14.90;99.90;;;;;;4998300;28;20202;-52
2021/09/12 04:57:44;;;;;;;8.27;5.47;;;14.70;99.90;;;;;;5004784;28;20287;-52
2021/09/12 05:00:12;;;;;;;7.33;4.97;;;14.70;99.90;;;;;;5001545;28;20593;-52
2021/09/12 05:02:39;;;;;;;11.07;5.47;;;14.60;99.90;;;;;;5000165;28;20233;-52
2021/09/12 05:05:06;;;;;;;5.70;5.07;;;14.70;99.90;;;;;;5005158;28;20194;-52
2021/09/12 05:07:34;;;;;;;7.80;4.77;;;14.70;99.90;;;;;;5007467;28;20245;-52
2021/09/12 05:10:00;;;;;;;6.23;4.93;;;14.70;99.90;;;;;;5003512;28;20304;-52
2021/09/12 05:12:28;;;;;;;7.23;4.73;;;14.70;99.90;;;;;;5004096;28;20233;-52
2021/09/12 05:14:55;;;;;;;9.90;5.53;;;14.70;99.90;;;;;;5000183;28;20239;-52
2021/09/12 05:17:22;;;;;;;10.77;5.47;;;14.80;99.90;;;;;;4997513;28;20206;-52
2021/09/12 05:19:49;;;;;;;9.60;5.47;;;14.70;99.90;;;;;;5000981;28;20316;-52
2021/09/12 05:22:16;;;;;;;8.83;4.60;;;14.70;99.90;;;;;;4997050;28;20233;-52
2021/09/12 05:24:43;;;;;;;8.10;4.70;;;14.60;99.90;;;;;;4998043;28;20885;-52
2021/09/12 05:27:11;;;;;;;6.67;4.80;;;14.70;99.90;;;;;;5001568;28;20695;-51
2021/09/12 05:29:37;;;;;;;9.50;4.83;;;14.70;99.90;;;;;;4998787;28;20229;-52
2021/09/12 05:32:05;;;;;;;8.93;5.07;;;14.70;99.90;;;;;;5003961;28;20384;-52
2021/09/12 05:34:32;;;;;;;11.27;4.70;;;14.70;99.90;;;;;;5005907;28;20398;-52
2021/09/12 05:36:58;;;;;;;9.07;5.03;;;14.60;99.90;;;;;;4999624;28;20244;-52
2021/09/12 05:39:25;;;;;;;6.77;4.97;;;14.60;99.90;;;;;;5000857;28;20293;-52
2021/09/12 05:41:52;;;;;;;9.30;4.83;;;14.70;99.90;;;;;;5004902;28;20293;-52
2021/09/12 05:44:19;;;;;;;7.60;4.23;;;14.60;99.90;;;;;;4999538;28;20284;-52
2021/09/12 05:46:47;;;;;;;7.23;4.47;;;14.60;99.90;;;;;;4998791;28;20301;-52
2021/09/12 05:49:14;;;;;;;7.40;4.30;;;14.50;99.90;;;;;;4995755;28;20305;-52
2021/09/12 05:51:41;;;;;;;9.47;4.47;;;14.40;99.90;;;;;;5005659;28;20538;-52
2021/09/12 05:54:08;;;;;;;7.47;4.60;;;14.50;99.90;;;;;;5003433;28;20288;-52
2021/09/12 05:56:34;;;;;;;8.63;4.20;;;14.70;99.90;;;;;;4999043;28;20229;-52
2021/09/12 05:59:01;;;;;;;6.90;4.50;;;14.70;99.90;;;;;;5007425;28;20299;-51
2021/09/12 06:01:28;;;;;;;8.70;4.97;;;14.40;99.90;;;;;;4997840;28;20298;-52
2021/09/12 06:03:55;;;;;;;7.10;4.43;;;14.50;99.90;;;;;;5000152;28;20206;-52
2021/09/12 06:06:22;;;;;;;8.27;4.80;;;14.30;99.90;;;;;;5005125;28;20323;-52
2021/09/12 06:08:49;;;;;;;9.07;4.33;;;14.30;99.90;;;;;;5005637;28;20586;-52
2021/09/12 06:11:16;;;;;;;7.37;4.87;;;14.50;99.90;;;;;;4996009;28;20281;-52
2021/09/12 06:13:42;;;;;;;9.40;5.30;;;14.60;99.90;;;;;;4999794;28;20283;-52
2021/09/12 06:16:09;;;;;;;6.90;4.33;;;14.80;99.90;;;;;;5004781;28;20304;-52
2021/09/12 06:18:36;;;;;;;7.33;5.23;;;14.80;99.90;;;;;;5006202;28;20591;-51
2021/09/12 06:21:04;;;;;;;7.27;4.33;;;14.80;99.90;;;;;;4999554;28;20296;-52
2021/09/12 06:23:31;;;;;;;10.23;4.60;;;14.80;99.90;;;;;;5000902;28;22597;-52
2021/09/12 06:26:02;;;;;;;9.67;4.90;;;14.90;99.90;;;;;;5004139;28;20395;-51
2021/09/12 06:28:29;;;;;;;10.70;4.90;;;14.80;99.90;;;;;;4998209;28;20298;-52
2021/09/12 06:30:56;;;;;;;8.47;4.53;;;14.80;99.90;;;;;;5008566;28;20250;-51
2021/09/12 06:33:23;;;;;;;7.53;4.77;;;14.80;99.90;;;;;;5000097;28;20220;-51
2021/09/12 06:35:50;;;;;;;10.73;5.10;;;14.80;99.90;;;;;;4999954;28;20214;-52
2021/09/12 06:38:17;;;;;;;10.90;4.80;;;14.70;99.90;;;;;;4997683;28;20297;-52
2021/09/12 06:40:44;;;;;;;7.10;4.87;;;14.60;99.90;;;;;;4999155;28;20285;-51
2021/09/12 06:43:11;;;;;;;10.00;5.10;;;14.50;99.90;;;;;;4999665;28;20621;-52
2021/09/12 06:45:37;;;;;;;9.13;4.87;;;14.70;99.90;;;;;;5003702;28;20542;-52
2021/09/12 06:48:04;;;;;;;8.17;4.87;;;14.60;99.90;;;;;;4995138;28;20205;-52
2021/09/12 06:50:31;;;;;;;9.00;5.50;;;14.80;99.90;;;;;;4994647;28;20288;-52
2021/09/12 06:52:58;;;;;;;10.90;4.87;;;14.80;99.90;;;;;;4993491;28;20629;-52
2021/09/12 06:55:24;;;;;;;6.93;4.93;;;14.80;99.90;;;;;;5000609;28;20262;-52
2021/09/12 06:57:51;;;;;;;10.10;5.30;;;14.90;99.90;;;;;;5002424;28;20203;-52
2021/09/12 07:00:18;;;;;;;6.70;5.20;;;15.10;99.90;;;;;;4998372;28;20527;-52
2021/09/12 07:02:45;;;;;;;10.57;5.20;;;15.20;99.90;;;;;;4998050;28;20722;-52
2021/09/12 07:05:12;;;;;;;7.80;5.10;;;15.40;99.90;;;;;;4995408;28;20572;-52
2021/09/12 07:07:40;;;;;;;6.47;4.50;;;15.30;99.90;;;;;;5001381;28;20261;-51
2021/09/12 07:10:07;;;;;;;10.90;4.70;;;15.40;99.90;;;;;;4996596;28;20415;-51
2021/09/12 07:12:34;;;;;;;8.63;5.17;;;15.40;99.90;;;;;;5000791;28;20631;-52
2021/09/12 07:15:01;;;;;;;11.67;5.77;;;15.60;99.90;;;;;;5001152;28;20286;-52
2021/09/12 07:17:28;;;;;;;8.93;5.07;;;15.60;99.90;;;;;;5004681;28;20267;-52
2021/09/12 07:19:55;;;;;;;9.10;5.10;;;15.60;99.90;;;;;;4999348;28;20300;-52
2021/09/12 07:22:21;;;;;;;10.57;5.33;;;15.50;99.90;;;;;;5005702;28;20646;-52
2021/09/12 07:24:48;;;;;;;9.73;5.37;;;15.60;99.90;;;;;;5002047;28;20662;-51
2021/09/12 07:27:15;;;;;;;11.57;5.57;;;15.60;99.90;;;;;;5012357;28;20245;-52
2021/09/12 07:29:52;;;;;;;13.40;5.60;;;15.70;99.90;;;;;;5011741;28;20194;-52
2021/09/12 07:32:18;;;;;;;6.80;4.30;;;15.60;99.90;;;;;;5006797;28;20317;-52
2021/09/12 07:34:45;;;;;;;8.37;4.57;;;15.80;99.90;;;;;;5008769;28;20647;-52
2021/09/12 07:37:12;;;;;;;6.40;4.80;;;15.90;99.90;;;;;;5007452;28;20375;-51
2021/09/12 07:39:38;;;;;;;11.27;5.37;;;16.00;99.90;;;;;;5001101;28;20682;-52
2021/09/12 07:42:05;;;;;;;9.30;5.43;;;16.00;99.90;;;;;;5008735;28;20316;-52
2021/09/12 07:44:32;;;;;;;9.97;5.70;;;15.90;99.90;;;;;;5003620;28;20198;-51
2021/09/12 07:46:59;;;;;;;11.23;5.00;;;16.00;99.90;;;;;;5012482;28;20264;-52
2021/09/12 07:49:26;;;;;;;11.17;6.17;;;16.30;99.90;;;;;;5013081;28;20368;-52
2021/09/12 07:51:53;;;;;;;10.10;5.40;;;16.10;99.90;;;;;;5010494;28;20285;-51
2021/09/12 07:54:19;;;;;;;10.93;5.57;;;16.40;99.90;;;;;;5005346;28;20236;-52
2021/09/12 07:56:46;;;;;;;9.27;5.83;;;16.70;99.90;;;;;;5009643;28;20290;-51
2021/09/12 07:59:13;;;;;;;10.23;5.40;;;16.80;99.90;;;;;;5013426;28;20636;-51
2021/09/12 08:01:40;;;;;;;11.80;5.90;;;16.70;99.90;;;;;;5004118;28;20230;-52
2021/09/12 08:04:07;;;;;;;9.73;4.90;;;16.80;99.90;;;;;;5000295;28;20198;-51
2021/09/12 08:06:35;;;;;;;11.03;5.33;;;16.80;99.90;;;;;;5006702;28;20231;-51
2021/09/12 08:09:01;;;;;;;7.83;5.00;;;16.90;99.90;;;;;;5007849;28;20233;-51
2021/09/12 08:11:28;;;;;;;15.03;5.67;;;17.00;99.90;;;;;;5000600;28;20299;-51
2021/09/12 08:13:55;;;;;;;8.83;5.23;;;17.10;99.90;;;;;;5006199;28;20290;-52
2021/09/12 08:16:22;;;;;;;11.17;6.03;;;17.10;99.90;;;;;;4995464;28;20230;-51
2021/09/12 08:18:48;;;;;;;9.50;5.67;;;17.10;99.90;;;;;;5000983;28;20209;-51
2021/09/12 08:21:15;;;;;;;8.70;5.27;;;17.30;99.90;;;;;;5014217;28;20263;-52
2021/09/12 08:23:42;;;;;;;13.13;5.47;;;17.40;99.90;;;;;;5005217;28;20195;-51
2021/09/12 08:26:09;;;;;;;12.30;5.90;;;17.20;99.90;;;;;;4999712;28;20236;-52
2021/09/12 08:28:36;;;;;;;8.43;5.57;;;17.40;99.90;;;;;;5008060;28;20222;-51
2021/09/12 08:31:03;;;;;;;8.87;5.80;;;17.50;99.90;;;;;;5009409;28;20265;-52
2021/09/12 08:33:30;;;;;;;10.33;6.10;;;17.80;99.90;;;;;;5019979;28;21558;-51
2021/09/12 08:35:57;;;;;;;13.17;6.43;;;18.20;99.90;;;;;;5004200;28;20258;-52
2021/09/12 08:38:24;;;;;;;14.27;6.40;;;18.30;99.90;;;;;;5014911;28;20235;-51
2021/09/12 08:40:58;;;;;;;14.63;5.97;;;18.50;99.90;;;;;;5009334;28;20627;-52
2021/09/12 08:43:26;;;;;;;14.43;6.47;;;18.40;99.90;;;;;;5018525;28;20235;-52
2021/09/12 08:45:54;;;;;;;12.47;6.53;;;18.50;99.90;;;;;;5014648;28;20198;-51
2021/09/12 08:48:21;;;;;;;9.53;6.57;;;18.60;99.90;;;;;;5001949;28;21806;-52
2021/09/12 08:51:01;;;;;;;10.00;6.50;;;18.50;99.90;;;;;;4957933;28;20216;-52
2021/09/12 08:53:28;;;;;;;9.00;7.03;;;18.50;99.90;;;;;;4946736;28;20293;-56
2021/09/12 08:55:55;;;;;;;11.47;6.50;;;18.60;99.90;;;;;;4946101;29;20297;-51
2021/09/12 08:58:22;;;;;;;10.77;6.43;;;18.70;99.90;;;;;;4946160;28;20306;-52
2021/09/12 09:00:49;;;;;;;9.43;6.43;;;19.10;99.90;;;;;;4949462;28;20237;-52
2021/09/12 09:03:16;;;;;;;11.10;6.80;;;19.50;99.90;;;;;;4941339;28;20242;-52
2021/09/12 09:05:43;;;;;;;11.37;6.47;;;19.40;99.90;;;;;;4939556;28;20206;-52
2021/09/12 09:08:14;;;;;;;10.03;7.00;;;19.60;99.90;;;;;;4940094;28;20247;-52
2021/09/12 09:10:45;;;;;;;10.63;7.63;;;19.40;99.90;;;;;;4937457;29;20247;-52
2021/09/12 09:13:37;;;;;;;12.37;7.67;;;19.10;99.90;;;;;;4923600;28;20241;-52
2021/09/12 09:16:07;;;;;;;14.83;8.43;;;18.80;99.90;;;;;;4939804;29;20211;-52
2021/09/12 09:18:35;;;;;;;18.00;9.17;;;18.50;99.90;;;;;;4933231;28;20212;-52
2021/09/12 09:21:22;;;;;;;15.20;9.40;;;18.40;99.90;;;;;;4987297;28;20236;-51
2021/09/12 09:24:06;;;;;;;16.77;9.03;;;18.60;99.90;;;;;;5001537;28;20287;-52
2021/09/12 09:26:42;;;;;;;16.20;9.37;;;18.80;99.90;;;;;;5007402;28;20624;-52
2021/09/12 09:29:11;;;;;;;15.67;9.47;;;18.60;99.90;;;;;;4997292;28;20292;-52
2021/09/12 09:31:39;;;;;;;15.27;9.93;;;18.30;99.90;;;;;;4997302;28;20335;-52
2021/09/12 09:34:33;;;;;;;15.57;9.97;;;18.30;99.90;;;;;;5000300;28;20231;-52
2021/09/12 09:37:13;;;;;;;13.40;9.30;;;18.40;99.90;;;;;;4996782;28;20252;-52
2021/09/12 09:39:44;;;;;;;15.20;9.23;;;18.20;99.90;;;;;;4995083;28;20244;-52
2021/09/12 09:42:29;;;;;;;20.17;10.23;;;18.20;99.90;;;;;;5007108;28;20285;-52
2021/09/12 09:45:02;;;;;;;18.83;10.87;;;18.30;99.90;;;;;;5000769;28;20312;-52
2021/09/12 09:47:29;;;;;;;16.70;10.60;;;18.30;99.90;;;;;;5002491;28;20232;-54
2021/09/12 09:50:12;;;;;;;14.57;9.43;;;18.30;99.90;;;;;;5017267;28;20304;-52
2021/09/12 09:52:46;;;;;;;14.53;10.57;;;18.20;99.90;;;;;;5002759;28;20275;-52
2021/09/12 09:55:15;;;;;;;14.40;9.10;;;18.10;99.90;;;;;;4999393;28;20197;-52
2021/09/12 09:57:44;;;;;;;16.80;9.40;;;18.20;99.90;;;;;;5004619;28;20291;-51
2021/09/12 10:00:11;;;;;;;17.73;10.30;;;18.30;99.90;;;;;;5003607;28;20252;-51
2021/09/12 10:02:38;;;;;;;16.17;9.50;;;18.30;99.90;;;;;;5000229;28;20244;-51
2021/09/12 10:05:13;;;;;;;13.53;9.43;;;18.50;99.90;;;;;;4991853;28;21076;-52
2021/09/12 10:07:41;;;;;;;14.00;9.50;;;18.60;99.90;;;;;;5005104;28;20264;-52
2021/09/12 10:10:14;;;;;;;14.23;9.80;;;18.40;99.90;;;;;;5000791;28;20279;-52
2021/09/12 10:12:47;;;;;;;14.60;8.70;;;18.30;99.90;;;;;;4996023;28;20527;-52
2021/09/12 10:15:21;;;;;;;14.10;8.97;;;18.30;99.90;;;;;;5004120;28;20722;-52
2021/09/12 10:17:50;;;;;;;14.00;8.57;;;18.30;99.90;;;;;;4994513;28;20290;-52
2021/09/12 10:20:22;;;;;;;12.47;8.73;;;18.40;99.90;;;;;;5008893;28;20231;-52
2021/09/12 10:22:50;;;;;;;14.67;9.63;;;18.60;99.90;;;;;;4996631;28;20227;-51
2021/09/12 10:25:28;;;;;;;13.50;8.47;;;18.60;99.90;;;;;;4998659;28;20218;-52
2021/09/12 10:28:03;;;;;;;12.80;9.03;;;18.80;99.90;;;;;;4999639;28;20211;-52
2021/09/12 10:30:38;;;;;;;14.83;8.40;;;18.60;99.90;;;;;;5000460;28;20242;-52
2021/09/12 10:33:05;;;;;;;15.67;9.27;;;18.80;99.90;;;;;;5000110;28;20312;-52
2021/09/12 10:35:54;;;;;;;12.40;8.50;;;18.70;99.90;;;;;;4999336;28;20283;-52
2021/09/12 10:38:31;;;;;;;13.57;9.07;;;18.80;99.90;;;;;;5001297;28;20304;-52
2021/09/12 10:41:01;;;;;;;13.80;8.80;;;19.00;99.90;;;;;;5005066;28;20308;-52
2021/09/12 10:43:29;;;;;;;18.90;10.73;;;19.30;99.90;;;;;;5007455;28;20248;-51
2021/09/12 10:46:04;;;;;;;15.83;9.77;;;19.30;99.90;;;;;;5000304;28;20287;-52
2021/09/12 10:48:54;;;;;;;15.57;10.30;;;19.30;99.90;;;;;;4999396;28;20720;-52
2021/09/12 10:51:21;;;;;;;14.70;9.93;;;19.10;99.90;;;;;;4995951;28;20303;-53
2021/09/12 10:54:00;;;;;;;16.03;9.47;;;19.10;99.90;;;;;;5001334;28;20322;-53
2021/09/12 10:56:29;;;;;;;25.07;10.10;;;19.20;99.90;;;;;;5000797;28;20338;-51
2021/09/12 10:59:05;;;;;;;16.73;10.43;;;19.30;99.90;;;;;;5002323;28;20704;-51
2021/09/12 11:01:33;;;;;;;17.00;11.33;;;19.40;99.90;;;;;;5002372;28;20204;-52
2021/09/12 11:04:03;;;;;;;18.33;11.80;;;19.40;99.90;;;;;;4999167;28;20653;-52
2021/09/12 11:06:32;;;;;;;17.17;11.10;;;19.40;99.90;;;;;;4991950;28;20637;-52
2021/09/12 11:09:01;;;;;;;19.40;11.17;;;19.50;99.90;;;;;;4995698;28;21189;-52
2021/09/12 11:11:28;;;;;;;16.97;12.17;;;19.60;99.90;;;;;;5003538;28;20502;-52
2021/09/12 11:13:56;;;;;;;13.87;11.40;;;19.50;99.90;;;;;;5005890;28;20325;-52
2021/09/12 11:16:25;;;;;;;18.87;12.30;;;19.50;99.90;;;;;;4996912;28;20253;-52
2021/09/12 11:18:59;;;;;;;16.37;11.80;;;19.50;99.90;;;;;;5005143;28;20621;-52
2021/09/12 11:21:39;;;;;;;16.00;12.03;;;19.60;99.90;;;;;;4995967;28;20213;-52
2021/09/12 11:24:11;;;;;;;14.23;11.17;;;19.60;99.90;;;;;;5005063;28;20631;-51
2021/09/12 11:26:55;;;;;;;14.10;11.63;;;19.60;99.90;;;;;;4995485;28;20260;-52
2021/09/12 11:29:29;;;;;;;17.70;12.83;;;19.70;99.90;;;;;;4998937;28;20226;-52
2021/09/12 11:32:04;;;;;;;15.57;12.67;;;19.70;99.90;;;;;;5001088;28;20228;-52
2021/09/12 11:34:32;;;;;;;16.40;12.10;;;19.40;99.90;;;;;;5003163;28;20287;-52
2021/09/12 11:37:03;;;;;;;19.30;13.30;;;19.30;99.90;;;;;;4994408;28;20289;-52
2021/09/12 11:39:32;;;;;;;20.93;13.70;;;19.30;99.90;;;;;;4994610;28;20228;-52
2021/09/12 11:42:01;;;;;;;19.10;13.37;;;19.20;99.90;;;;;;5007072;28;20227;-52
2021/09/12 11:44:37;;;;;;;23.00;15.10;;;19.30;99.90;;;;;;4997811;28;20221;-52
2021/09/12 11:47:12;;;;;;;21.53;14.80;;;19.60;99.90;;;;;;4997217;28;20702;-52
2021/09/12 11:49:40;;;;;;;21.37;15.03;;;19.80;99.90;;;;;;5003631;28;20685;-51
2021/09/12 11:52:08;;;;;;;20.00;14.33;;;20.20;99.90;;;;;;5003068;28;20290;-52
2021/09/12 11:54:36;;;;;;;23.13;15.47;;;20.50;99.90;;;;;;5010036;28;20314;-51
2021/09/12 11:57:07;;;;;;;24.80;15.33;;;20.40;99.90;;;;;;5014231;28;20240;-52
2021/09/12 11:59:49;;;;;;;23.37;15.57;;;20.40;99.90;;;;;;5001350;28;20203;-51
2021/09/12 12:02:21;;;;;;;21.20;15.60;;;20.30;99.90;;;;;;5003006;28;20330;-52
2021/09/12 12:04:49;;;;;;;21.87;14.40;;;20.40;99.90;;;;;;5008894;28;20490;-52
2021/09/12 12:07:17;;;;;;;27.27;16.53;;;20.60;99.90;;;;;;5014848;28;20232;-52
2021/09/12 12:09:46;;;;;;;25.20;16.60;;;20.70;99.90;;;;;;5015113;28;20741;-52
2021/09/12 12:12:19;;;;;;;18.00;15.10;;;21.10;99.90;;;;;;5018960;28;20307;-52
2021/09/12 12:14:55;;;;;;;26.60;16.80;;;21.10;99.90;;;;;;5012783;28;20624;-52
2021/09/12 12:17:23;;;;;;;27.47;17.27;;;20.90;99.90;;;;;;5001200;28;20921;-52
2021/09/12 12:19:52;;;;;;;22.90;16.70;;;21.10;99.90;;;;;;5007490;28;20482;-52
2021/09/12 12:22:21;;;;;;;26.37;16.93;;;21.70;99.90;;;;;;5011383;28;20263;-52
2021/09/12 12:24:52;;;;;;;23.73;18.77;;;21.90;99.90;;;;;;4997031;28;20349;-52
2021/09/12 12:27:19;;;;;;;27.93;17.73;;;21.80;99.90;;;;;;5001036;28;20273;-52
2021/09/12 12:30:00;;;;;;;23.13;18.93;;;21.60;98.70;;;;;;4996507;28;20288;-52
2021/09/12 12:32:28;;;;;;;24.73;18.10;;;21.00;99.90;;;;;;5001264;28;20327;-52
2021/09/12 12:34:57;;;;;;;21.87;17.73;;;21.10;99.90;;;;;;5001072;28;20212;-52
2021/09/12 12:37:27;;;;;;;26.70;18.27;;;21.10;99.90;;;;;;5010381;28;20286;-52
2021/09/12 12:40:02;;;;;;;23.17;16.37;;;21.00;89.30;;;;;;5000778;28;20652;-52
2021/09/12 12:42:49;;;;;;;22.20;16.67;;;21.00;99.90;;;;;;5018017;28;20514;-52
2021/09/12 12:45:16;;;;;;;20.67;16.50;;;21.30;99.90;;;;;;5005469;28;20290;-52
2021/09/12 12:47:43;;;;;;;17.00;15.30;;;21.70;99.90;;;;;;5005193;28;20216;-52